sensor_id;sensor_type;location;lat;lon;timestamp;temperature;humidity
12684;DHT22;6406;59.312;18.058;2022-10-19T00:01:02;5.40;1.00
12684;DHT22;6406;59.312;18.058;2022-10-19T00:03:29;5.30;1.00
12684;DHT22;6406;59.312;18.058;2022-10-19T00:05:57;5.30;1.00
12684;DHT22;6406;59.312;18.058;2022-10-19T00:08:24;5.30;1.00
12684;DHT22;6406;59.312;18.058;2022-10-19T00:10:52;5.30;1.00
12684;DHT22;6406;59.312;18.058;2022-10-19T00:13:19;5.20;1.00
12684;DHT22;6406;59.312;18.058;2022-10-19T00:15:46;5.20;1.00
12684;DHT22;6406;59.312;18.058;2022-10-19T00:18:13;5.60;1.00
12684;DHT22;6406;59.312;18.058;2022-10-19T00:20:40;5.10;1.00
12684;DHT22;6406;59.312;18.058;2022-10-19T00:23:07;5.10;1.00
12684;DHT22;6406;59.312;18.058;2022-10-19T00:25:34;5.10;1.00
12684;DHT22;6406;59.312;18.058;2022-10-19T00:28:04;5.10;1.00
12684;DHT22;6406;59.312;18.058;2022-10-19T00:30:34;5.10;1.00
12684;DHT22;6406;59.312;18.058;2022-10-19T00:33:01;5.10;1.00
12684;DHT22;6406;59.312;18.058;2022-10-19T00:35:29;5.10;1.00
12684;DHT22;6406;59.312;18.058;2022-10-19T00:37:56;5.10;1.00
12684;DHT22;6406;59.312;18.058;2022-10-19T00:40:23;5.10;1.00
12684;DHT22;6406;59.312;18.058;2022-10-19T00:42:53;5.20;1.00
12684;DHT22;6406;59.312;18.058;2022-10-19T00:45:21;5.10;99.90
12684;DHT22;6406;59.312;18.058;2022-10-19T00:47:49;5.10;99.90
12684;DHT22;6406;59.312;18.058;2022-10-19T00:50:16;5.10;99.90
12684;DHT22;6406;59.312;18.058;2022-10-19T00:52:44;5.50;99.90
12684;DHT22;6406;59.312;18.058;2022-10-19T00:55:11;5.00;99.90
12684;DHT22;6406;59.312;18.058;2022-10-19T00:57:39;5.40;99.90
12684;DHT22;6406;59.312;18.058;2022-10-19T01:00:07;5.00;99.90
12684;DHT22;6406;59.312;18.058;2022-10-19T01:02:35;5.00;99.90
12684;DHT22;6406;59.312;18.058;2022-10-19T01:05:03;5.30;99.90
12684;DHT22;6406;59.312;18.058;2022-10-19T01:07:30;5.00;99.90
12684;DHT22;6406;59.312;18.058;2022-10-19T01:09:58;5.60;99.90
12684;DHT22;6406;59.312;18.058;2022-10-19T01:13:00;5.00;99.90
12684;DHT22;6406;59.312;18.058;2022-10-19T01:15:38;5.00;99.90
12684;DHT22;6406;59.312;18.058;2022-10-19T01:18:17;5.00;99.90
12684;DHT22;6406;59.312;18.058;2022-10-19T01:21:20;4.90;99.90
12684;DHT22;6406;59.312;18.058;2022-10-19T01:24:26;4.90;99.90
12684;DHT22;6406;59.312;18.058;2022-10-19T01:30:08;4.80;1.00
12684;DHT22;6406;59.312;18.058;2022-10-19T01:32:51;4.80;99.90
12684;DHT22;6406;59.312;18.058;2022-10-19T01:35:26;4.70;99.90
12684;DHT22;6406;59.312;18.058;2022-10-19T01:38:02;4.70;99.90
12684;DHT22;6406;59.312;18.058;2022-10-19T01:40:36;4.70;99.90
12684;DHT22;6406;59.312;18.058;2022-10-19T01:43:10;4.70;99.90
12684;DHT22;6406;59.312;18.058;2022-10-19T01:45:44;4.60;99.90
12684;DHT22;6406;59.312;18.058;2022-10-19T01:48:15;4.60;99.90
12684;DHT22;6406;59.312;18.058;2022-10-19T01:50:47;4.70;99.90
12684;DHT22;6406;59.312;18.058;2022-10-19T01:53:17;5.00;99.90
12684;DHT22;6406;59.312;18.058;2022-10-19T01:55:49;5.10;99.90
12684;DHT22;6406;59.312;18.058;2022-10-19T01:58:19;5.10;99.90
12684;DHT22;6406;59.312;18.058;2022-10-19T02:00:51;4.60;99.90
12684;DHT22;6406;59.312;18.058;2022-10-19T02:03:20;4.50;99.90
12684;DHT22;6406;59.312;18.058;2022-10-19T02:05:49;4.60;99.90
12684;DHT22;6406;59.312;18.058;2022-10-19T02:08:23;4.80;1.00
12684;DHT22;6406;59.312;18.058;2022-10-19T02:10:52;4.40;1.00
12684;DHT22;6406;59.312;18.058;2022-10-19T02:13:21;4.50;1.00
12684;DHT22;6406;59.312;18.058;2022-10-19T02:15:51;4.40;1.00
12684;DHT22;6406;59.312;18.058;2022-10-19T02:18:24;4.50;1.00
12684;DHT22;6406;59.312;18.058;2022-10-19T02:20:54;4.40;1.00
12684;DHT22;6406;59.312;18.058;2022-10-19T02:23:23;4.40;1.00
12684;DHT22;6406;59.312;18.058;2022-10-19T02:25:51;4.40;1.00
12684;DHT22;6406;59.312;18.058;2022-10-19T02:28:18;4.30;1.00
12684;DHT22;6406;59.312;18.058;2022-10-19T02:30:46;4.30;1.00
12684;DHT22;6406;59.312;18.058;2022-10-19T02:33:15;5.10;1.00
12684;DHT22;6406;59.312;18.058;2022-10-19T02:35:42;4.40;1.00
12684;DHT22;6406;59.312;18.058;2022-10-19T02:38:12;4.30;1.00
12684;DHT22;6406;59.312;18.058;2022-10-19T02:40:44;4.30;1.00
12684;DHT22;6406;59.312;18.058;2022-10-19T02:43:16;4.80;1.00
12684;DHT22;6406;59.312;18.058;2022-10-19T02:45:50;4.30;1.00
12684;DHT22;6406;59.312;18.058;2022-10-19T02:48:21;4.40;1.00
12684;DHT22;6406;59.312;18.058;2022-10-19T02:50:49;4.20;1.00
12684;DHT22;6406;59.312;18.058;2022-10-19T02:53:17;4.20;1.00
12684;DHT22;6406;59.312;18.058;2022-10-19T02:55:46;4.20;1.00
12684;DHT22;6406;59.312;18.058;2022-10-19T02:58:14;4.20;1.00
12684;DHT22;6406;59.312;18.058;2022-10-19T03:00:41;4.20;1.00
12684;DHT22;6406;59.312;18.058;2022-10-19T03:03:08;4.70;1.00
12684;DHT22;6406;59.312;18.058;2022-10-19T03:05:37;4.80;1.00
12684;DHT22;6406;59.312;18.058;2022-10-19T03:08:04;4.60;1.00
12684;DHT22;6406;59.312;18.058;2022-10-19T03:10:31;4.20;1.00
12684;DHT22;6406;59.312;18.058;2022-10-19T03:12:58;4.20;1.00
12684;DHT22;6406;59.312;18.058;2022-10-19T03:15:25;4.10;1.00
12684;DHT22;6406;59.312;18.058;2022-10-19T03:17:54;4.10;1.00
12684;DHT22;6406;59.312;18.058;2022-10-19T03:20:21;4.30;1.00
12684;DHT22;6406;59.312;18.058;2022-10-19T03:22:50;4.10;1.00
12684;DHT22;6406;59.312;18.058;2022-10-19T03:25:17;4.10;1.00
12684;DHT22;6406;59.312;18.058;2022-10-19T03:27:44;4.10;1.00
12684;DHT22;6406;59.312;18.058;2022-10-19T03:30:11;4.00;1.00
12684;DHT22;6406;59.312;18.058;2022-10-19T03:32:38;4.10;1.00
12684;DHT22;6406;59.312;18.058;2022-10-19T03:35:06;4.00;1.00
12684;DHT22;6406;59.312;18.058;2022-10-19T03:37:33;4.00;1.00
12684;DHT22;6406;59.312;18.058;2022-10-19T03:40:03;4.10;1.00
12684;DHT22;6406;59.312;18.058;2022-10-19T03:42:30;4.00;1.00
12684;DHT22;6406;59.312;18.058;2022-10-19T03:44:57;4.50;1.00
12684;DHT22;6406;59.312;18.058;2022-10-19T03:47:24;4.00;1.00
12684;DHT22;6406;59.312;18.058;2022-10-19T03:49:51;4.10;1.00
12684;DHT22;6406;59.312;18.058;2022-10-19T03:52:18;4.00;1.00
12684;DHT22;6406;59.312;18.058;2022-10-19T03:54:48;4.00;1.00
12684;DHT22;6406;59.312;18.058;2022-10-19T03:57:17;4.00;1.00
12684;DHT22;6406;59.312;18.058;2022-10-19T03:59:45;3.90;1.00
12684;DHT22;6406;59.312;18.058;2022-10-19T04:02:12;5.40;1.00
12684;DHT22;6406;59.312;18.058;2022-10-19T04:04:40;3.90;1.00
12684;DHT22;6406;59.312;18.058;2022-10-19T04:07:08;3.90;1.00
12684;DHT22;6406;59.312;18.058;2022-10-19T04:09:35;3.90;1.00
12684;DHT22;6406;59.312;18.058;2022-10-19T04:12:02;4.00;1.00
12684;DHT22;6406;59.312;18.058;2022-10-19T04:14:31;3.90;1.00
12684;DHT22;6406;59.312;18.058;2022-10-19T04:16:58;3.90;1.00
12684;DHT22;6406;59.312;18.058;2022-10-19T04:19:25;3.90;1.00
12684;DHT22;6406;59.312;18.058;2022-10-19T04:21:52;3.90;1.00
12684;DHT22;6406;59.312;18.058;2022-10-19T04:24:19;3.90;1.00
12684;DHT22;6406;59.312;18.058;2022-10-19T04:26:47;3.90;1.00
12684;DHT22;6406;59.312;18.058;2022-10-19T04:29:15;3.90;1.00
12684;DHT22;6406;59.312;18.058;2022-10-19T04:31:48;5.40;1.00
12684;DHT22;6406;59.312;18.058;2022-10-19T04:34:15;3.80;1.00
12684;DHT22;6406;59.312;18.058;2022-10-19T04:36:42;3.80;1.00
12684;DHT22;6406;59.312;18.058;2022-10-19T04:39:10;4.00;1.00
12684;DHT22;6406;59.312;18.058;2022-10-19T04:41:38;3.80;1.00
12684;DHT22;6406;59.312;18.058;2022-10-19T04:44:08;3.80;1.00
12684;DHT22;6406;59.312;18.058;2022-10-19T04:46:35;3.70;1.00
12684;DHT22;6406;59.312;18.058;2022-10-19T04:49:04;3.70;1.00
12684;DHT22;6406;59.312;18.058;2022-10-19T04:51:31;4.30;1.00
12684;DHT22;6406;59.312;18.058;2022-10-19T04:53:59;3.70;1.00
12684;DHT22;6406;59.312;18.058;2022-10-19T04:56:28;3.70;1.00
12684;DHT22;6406;59.312;18.058;2022-10-19T04:58:58;3.10;1.00
12684;DHT22;6406;59.312;18.058;2022-10-19T05:01:27;3.20;1.00
12684;DHT22;6406;59.312;18.058;2022-10-19T05:03:55;3.70;1.00
12684;DHT22;6406;59.312;18.058;2022-10-19T05:06:25;3.70;1.00
12684;DHT22;6406;59.312;18.058;2022-10-19T05:08:53;4.70;1.00
12684;DHT22;6406;59.312;18.058;2022-10-19T05:11:20;4.10;1.00
12684;DHT22;6406;59.312;18.058;2022-10-19T05:13:49;3.70;1.00
12684;DHT22;6406;59.312;18.058;2022-10-19T05:16:19;5.20;1.00
12684;DHT22;6406;59.312;18.058;2022-10-19T05:18:47;3.80;1.00
12684;DHT22;6406;59.312;18.058;2022-10-19T05:21:16;3.70;1.00
12684;DHT22;6406;59.312;18.058;2022-10-19T05:23:49;3.70;1.00
12684;DHT22;6406;59.312;18.058;2022-10-19T05:26:19;3.70;1.00
12684;DHT22;6406;59.312;18.058;2022-10-19T05:28:48;1.80;1.00
12684;DHT22;6406;59.312;18.058;2022-10-19T05:31:17;3.60;1.00
12684;DHT22;6406;59.312;18.058;2022-10-19T05:33:44;2.10;1.00
12684;DHT22;6406;59.312;18.058;2022-10-19T05:36:14;3.60;1.00
12684;DHT22;6406;59.312;18.058;2022-10-19T05:38:42;3.60;1.00
12684;DHT22;6406;59.312;18.058;2022-10-19T05:41:15;3.60;1.00
12684;DHT22;6406;59.312;18.058;2022-10-19T05:43:45;1.60;1.00
12684;DHT22;6406;59.312;18.058;2022-10-19T05:46:14;3.90;1.00
12684;DHT22;6406;59.312;18.058;2022-10-19T05:48:43;3.80;1.00
12684;DHT22;6406;59.312;18.058;2022-10-19T05:51:12;3.70;1.00
12684;DHT22;6406;59.312;18.058;2022-10-19T05:53:41;3.50;1.00
12684;DHT22;6406;59.312;18.058;2022-10-19T05:56:15;4.00;1.00
12684;DHT22;6406;59.312;18.058;2022-10-19T05:58:43;1.70;1.00
12684;DHT22;6406;59.312;18.058;2022-10-19T06:01:11;3.80;1.00
12684;DHT22;6406;59.312;18.058;2022-10-19T06:03:39;3.70;1.00
12684;DHT22;6406;59.312;18.058;2022-10-19T06:06:08;3.70;1.00
12684;DHT22;6406;59.312;18.058;2022-10-19T06:08:40;3.70;1.00
12684;DHT22;6406;59.312;18.058;2022-10-19T06:11:10;3.70;1.00
12684;DHT22;6406;59.312;18.058;2022-10-19T06:13:43;3.80;1.00
12684;DHT22;6406;59.312;18.058;2022-10-19T06:16:12;3.70;1.00
12684;DHT22;6406;59.312;18.058;2022-10-19T06:18:41;3.70;1.00
12684;DHT22;6406;59.312;18.058;2022-10-19T06:21:10;3.80;1.00
12684;DHT22;6406;59.312;18.058;2022-10-19T06:23:39;3.80;1.00
12684;DHT22;6406;59.312;18.058;2022-10-19T06:26:13;3.90;1.00
12684;DHT22;6406;59.312;18.058;2022-10-19T06:28:43;4.00;1.00
12684;DHT22;6406;59.312;18.058;2022-10-19T06:31:12;3.90;1.00
12684;DHT22;6406;59.312;18.058;2022-10-19T06:33:44;3.90;1.00
12684;DHT22;6406;59.312;18.058;2022-10-19T06:36:14;3.00;1.00
12684;DHT22;6406;59.312;18.058;2022-10-19T06:38:42;4.90;1.00
12684;DHT22;6406;59.312;18.058;2022-10-19T06:41:15;4.00;1.00
12684;DHT22;6406;59.312;18.058;2022-10-19T06:44:02;4.00;1.00
12684;DHT22;6406;59.312;18.058;2022-10-19T06:46:30;4.10;1.00
12684;DHT22;6406;59.312;18.058;2022-10-19T06:49:03;4.00;1.00
12684;DHT22;6406;59.312;18.058;2022-10-19T06:51:31;4.00;1.00
12684;DHT22;6406;59.312;18.058;2022-10-19T06:53:59;4.00;1.00
12684;DHT22;6406;59.312;18.058;2022-10-19T06:56:28;4.00;1.00
12684;DHT22;6406;59.312;18.058;2022-10-19T06:58:57;4.00;1.00
12684;DHT22;6406;59.312;18.058;2022-10-19T07:01:26;4.30;1.00
12684;DHT22;6406;59.312;18.058;2022-10-19T07:03:56;4.00;1.00
12684;DHT22;6406;59.312;18.058;2022-10-19T07:06:25;4.20;1.00
12684;DHT22;6406;59.312;18.058;2022-10-19T07:08:54;4.30;1.00
12684;DHT22;6406;59.312;18.058;2022-10-19T07:11:22;4.30;1.00
12684;DHT22;6406;59.312;18.058;2022-10-19T07:13:51;3.90;1.00
12684;DHT22;6406;59.312;18.058;2022-10-19T07:16:19;4.60;1.00
12684;DHT22;6406;59.312;18.058;2022-10-19T07:18:59;4.40;1.00
12684;DHT22;6406;59.312;18.058;2022-10-19T07:21:28;5.40;1.00
12684;DHT22;6406;59.312;18.058;2022-10-19T07:23:57;5.30;1.00
12684;DHT22;6406;59.312;18.058;2022-10-19T07:26:29;4.70;1.00
12684;DHT22;6406;59.312;18.058;2022-10-19T07:28:58;4.80;1.00
12684;DHT22;6406;59.312;18.058;2022-10-19T07:31:34;4.00;1.00
12684;DHT22;6406;59.312;18.058;2022-10-19T07:34:12;4.90;1.00
12684;DHT22;6406;59.312;18.058;2022-10-19T07:36:43;5.00;1.00
12684;DHT22;6406;59.312;18.058;2022-10-19T07:39:13;5.30;1.00
12684;DHT22;6406;59.312;18.058;2022-10-19T07:41:42;5.10;99.90
12684;DHT22;6406;59.312;18.058;2022-10-19T07:44:10;5.20;99.90
12684;DHT22;6406;59.312;18.058;2022-10-19T07:46:39;5.30;99.90
12684;DHT22;6406;59.312;18.058;2022-10-19T07:49:10;5.30;99.90
12684;DHT22;6406;59.312;18.058;2022-10-19T07:51:39;5.30;99.90
12684;DHT22;6406;59.312;18.058;2022-10-19T07:54:07;5.30;99.90
12684;DHT22;6406;59.312;18.058;2022-10-19T07:56:35;5.40;99.90
12684;DHT22;6406;59.312;18.058;2022-10-19T07:59:03;5.50;99.90
12684;DHT22;6406;59.312;18.058;2022-10-19T08:01:32;5.60;99.90
12684;DHT22;6406;59.312;18.058;2022-10-19T08:04:00;5.70;99.90
12684;DHT22;6406;59.312;18.058;2022-10-19T08:06:29;5.70;99.90
12684;DHT22;6406;59.312;18.058;2022-10-19T08:08:56;5.60;99.90
12684;DHT22;6406;59.312;18.058;2022-10-19T08:11:25;5.70;99.90
12684;DHT22;6406;59.312;18.058;2022-10-19T08:13:53;5.80;99.90
12684;DHT22;6406;59.312;18.058;2022-10-19T08:16:25;5.80;99.90
12684;DHT22;6406;59.312;18.058;2022-10-19T08:18:55;6.00;99.90
12684;DHT22;6406;59.312;18.058;2022-10-19T08:21:23;6.00;99.90
12684;DHT22;6406;59.312;18.058;2022-10-19T08:23:52;6.10;99.90
12684;DHT22;6406;59.312;18.058;2022-10-19T08:26:20;5.80;99.90
12684;DHT22;6406;59.312;18.058;2022-10-19T08:28:47;6.10;99.90
12684;DHT22;6406;59.312;18.058;2022-10-19T08:31:17;6.20;99.90
12684;DHT22;6406;59.312;18.058;2022-10-19T08:33:44;6.40;99.90
12684;DHT22;6406;59.312;18.058;2022-10-19T08:36:12;4.10;99.90
12684;DHT22;6406;59.312;18.058;2022-10-19T08:38:40;6.40;99.90
12684;DHT22;6406;59.312;18.058;2022-10-19T08:41:27;6.30;99.90
12684;DHT22;6406;59.312;18.058;2022-10-19T08:44:24;6.00;99.90
12684;DHT22;6406;59.312;18.058;2022-10-19T08:46:59;6.40;99.90
12684;DHT22;6406;59.312;18.058;2022-10-19T08:49:29;6.40;99.90
12684;DHT22;6406;59.312;18.058;2022-10-19T08:52:00;6.60;99.90
12684;DHT22;6406;59.312;18.058;2022-10-19T08:54:34;6.60;99.90
12684;DHT22;6406;59.312;18.058;2022-10-19T08:57:12;6.20;99.90
12684;DHT22;6406;59.312;18.058;2022-10-19T08:59:43;6.80;99.90
12684;DHT22;6406;59.312;18.058;2022-10-19T09:02:17;6.70;99.90
12684;DHT22;6406;59.312;18.058;2022-10-19T09:04:49;6.70;99.90
12684;DHT22;6406;59.312;18.058;2022-10-19T09:07:24;6.90;99.90
12684;DHT22;6406;59.312;18.058;2022-10-19T09:09:55;6.90;99.90
12684;DHT22;6406;59.312;18.058;2022-10-19T09:12:36;6.20;99.90
12684;DHT22;6406;59.312;18.058;2022-10-19T09:15:10;7.00;99.90
12684;DHT22;6406;59.312;18.058;2022-10-19T09:17:38;7.10;99.90
12684;DHT22;6406;59.312;18.058;2022-10-19T09:20:15;7.20;99.90
12684;DHT22;6406;59.312;18.058;2022-10-19T09:22:43;7.30;99.90
12684;DHT22;6406;59.312;18.058;2022-10-19T09:25:19;7.30;99.90
12684;DHT22;6406;59.312;18.058;2022-10-19T09:27:56;7.50;99.90
12684;DHT22;6406;59.312;18.058;2022-10-19T09:30:26;7.50;99.90
12684;DHT22;6406;59.312;18.058;2022-10-19T09:32:59;7.50;99.90
12684;DHT22;6406;59.312;18.058;2022-10-19T09:35:29;7.20;99.90
12684;DHT22;6406;59.312;18.058;2022-10-19T09:38:00;7.90;99.90
12684;DHT22;6406;59.312;18.058;2022-10-19T09:40:29;8.10;99.90
12684;DHT22;6406;59.312;18.058;2022-10-19T09:42:57;8.40;83.60
12684;DHT22;6406;59.312;18.058;2022-10-19T09:45:37;9.00;2.00
12684;DHT22;6406;59.312;18.058;2022-10-19T09:48:15;9.70;1.00
12684;DHT22;6406;59.312;18.058;2022-10-19T09:50:44;9.90;1.00
12684;DHT22;6406;59.312;18.058;2022-10-19T09:53:18;10.30;1.00
12684;DHT22;6406;59.312;18.058;2022-10-19T09:55:49;10.50;1.00
12684;DHT22;6406;59.312;18.058;2022-10-19T09:58:20;8.90;1.00
12684;DHT22;6406;59.312;18.058;2022-10-19T10:00:51;11.40;1.00
12684;DHT22;6406;59.312;18.058;2022-10-19T10:03:27;11.80;1.00
12684;DHT22;6406;59.312;18.058;2022-10-19T10:05:57;12.20;1.00
12684;DHT22;6406;59.312;18.058;2022-10-19T10:08:28;11.70;1.00
12684;DHT22;6406;59.312;18.058;2022-10-19T10:11:04;10.40;1.00
12684;DHT22;6406;59.312;18.058;2022-10-19T10:13:37;11.20;1.00
12684;DHT22;6406;59.312;18.058;2022-10-19T10:16:07;11.10;1.00
12684;DHT22;6406;59.312;18.058;2022-10-19T10:18:49;11.60;1.00
12684;DHT22;6406;59.312;18.058;2022-10-19T10:21:21;11.70;1.00
12684;DHT22;6406;59.312;18.058;2022-10-19T10:23:59;12.00;1.00
12684;DHT22;6406;59.312;18.058;2022-10-19T10:26:27;12.50;1.00
12684;DHT22;6406;59.312;18.058;2022-10-19T10:28:56;12.00;1.00
12684;DHT22;6406;59.312;18.058;2022-10-19T10:31:26;11.60;1.00
12684;DHT22;6406;59.312;18.058;2022-10-19T10:33:57;10.90;1.00
12684;DHT22;6406;59.312;18.058;2022-10-19T10:36:27;11.80;1.00
12684;DHT22;6406;59.312;18.058;2022-10-19T10:39:00;12.50;1.00
12684;DHT22;6406;59.312;18.058;2022-10-19T10:41:35;12.20;1.00
12684;DHT22;6406;59.312;18.058;2022-10-19T10:44:14;12.20;1.00
12684;DHT22;6406;59.312;18.058;2022-10-19T10:46:50;11.70;1.00
12684;DHT22;6406;59.312;18.058;2022-10-19T10:49:21;11.90;1.00
12684;DHT22;6406;59.312;18.058;2022-10-19T10:51:53;11.70;1.00
12684;DHT22;6406;59.312;18.058;2022-10-19T10:54:22;11.70;1.00
12684;DHT22;6406;59.312;18.058;2022-10-19T10:57:07;11.90;1.00
12684;DHT22;6406;59.312;18.058;2022-10-19T10:59:46;12.00;1.00
12684;DHT22;6406;59.312;18.058;2022-10-19T11:02:27;12.60;1.00
12684;DHT22;6406;59.312;18.058;2022-10-19T11:05:00;12.20;1.00
12684;DHT22;6406;59.312;18.058;2022-10-19T11:07:30;12.20;1.00
12684;DHT22;6406;59.312;18.058;2022-10-19T11:10:01;12.00;1.00
12684;DHT22;6406;59.312;18.058;2022-10-19T11:12:35;12.10;1.00
12684;DHT22;6406;59.312;18.058;2022-10-19T11:15:12;12.20;1.00
12684;DHT22;6406;59.312;18.058;2022-10-19T11:17:52;12.40;1.00
12684;DHT22;6406;59.312;18.058;2022-10-19T11:20:22;12.10;1.00
12684;DHT22;6406;59.312;18.058;2022-10-19T11:22:56;12.40;1.00
12684;DHT22;6406;59.312;18.058;2022-10-19T11:25:31;12.20;1.00
12684;DHT22;6406;59.312;18.058;2022-10-19T11:28:12;12.00;1.00
12684;DHT22;6406;59.312;18.058;2022-10-19T11:30:53;12.00;1.00
12684;DHT22;6406;59.312;18.058;2022-10-19T11:33:36;11.70;1.00
12684;DHT22;6406;59.312;18.058;2022-10-19T11:36:14;9.80;1.00
12684;DHT22;6406;59.312;18.058;2022-10-19T11:38:59;11.30;1.00
12684;DHT22;6406;59.312;18.058;2022-10-19T11:41:46;11.60;1.00
12684;DHT22;6406;59.312;18.058;2022-10-19T11:44:25;11.40;1.00
12684;DHT22;6406;59.312;18.058;2022-10-19T11:47:12;11.60;1.00
12684;DHT22;6406;59.312;18.058;2022-10-19T11:49:50;11.70;1.00
12684;DHT22;6406;59.312;18.058;2022-10-19T11:52:27;11.60;1.00
12684;DHT22;6406;59.312;18.058;2022-10-19T11:55:05;11.20;1.00
12684;DHT22;6406;59.312;18.058;2022-10-19T11:57:45;11.40;1.00
12684;DHT22;6406;59.312;18.058;2022-10-19T12:00:17;11.40;1.00
12684;DHT22;6406;59.312;18.058;2022-10-19T12:03:11;11.40;1.00
12684;DHT22;6406;59.312;18.058;2022-10-19T12:05:53;11.40;1.00
12684;DHT22;6406;59.312;18.058;2022-10-19T12:08:33;11.30;1.00
12684;DHT22;6406;59.312;18.058;2022-10-19T12:11:17;11.70;1.00
12684;DHT22;6406;59.312;18.058;2022-10-19T12:13:51;12.30;1.00
12684;DHT22;6406;59.312;18.058;2022-10-19T12:16:20;11.60;1.00
12684;DHT22;6406;59.312;18.058;2022-10-19T12:18:56;11.80;1.00
12684;DHT22;6406;59.312;18.058;2022-10-19T12:21:32;11.50;1.00
12684;DHT22;6406;59.312;18.058;2022-10-19T12:24:05;9.00;1.00
12684;DHT22;6406;59.312;18.058;2022-10-19T12:26:39;11.60;1.00
12684;DHT22;6406;59.312;18.058;2022-10-19T12:29:13;11.60;1.00
12684;DHT22;6406;59.312;18.058;2022-10-19T12:31:41;10.70;1.00
12684;DHT22;6406;59.312;18.058;2022-10-19T12:34:24;10.60;1.00
12684;DHT22;6406;59.312;18.058;2022-10-19T12:36:59;11.00;1.00
12684;DHT22;6406;59.312;18.058;2022-10-19T12:39:32;10.30;1.00
12684;DHT22;6406;59.312;18.058;2022-10-19T12:42:07;10.50;1.00
12684;DHT22;6406;59.312;18.058;2022-10-19T12:45:00;10.50;1.00
12684;DHT22;6406;59.312;18.058;2022-10-19T12:47:31;10.50;1.00
12684;DHT22;6406;59.312;18.058;2022-10-19T12:49:59;10.10;1.00
12684;DHT22;6406;59.312;18.058;2022-10-19T12:52:41;10.00;1.00
12684;DHT22;6406;59.312;18.058;2022-10-19T12:58:04;8.80;1.00
12684;DHT22;6406;59.312;18.058;2022-10-19T13:00:37;10.00;1.00
12684;DHT22;6406;59.312;18.058;2022-10-19T13:03:07;11.70;1.00
12684;DHT22;6406;59.312;18.058;2022-10-19T13:05:41;9.70;1.00
12684;DHT22;6406;59.312;18.058;2022-10-19T13:08:27;9.70;1.00
12684;DHT22;6406;59.312;18.058;2022-10-19T13:11:04;9.60;1.00
12684;DHT22;6406;59.312;18.058;2022-10-19T13:13:54;9.60;1.00
12684;DHT22;6406;59.312;18.058;2022-10-19T13:16:41;9.50;1.00
12684;DHT22;6406;59.312;18.058;2022-10-19T13:19:21;9.50;1.00
12684;DHT22;6406;59.312;18.058;2022-10-19T13:22:24;9.40;1.00
12684;DHT22;6406;59.312;18.058;2022-10-19T13:27:55;8.00;1.00
12684;DHT22;6406;59.312;18.058;2022-10-19T13:30:57;9.20;53.00
12684;DHT22;6406;59.312;18.058;2022-10-19T13:33:45;9.00;78.10
12684;DHT22;6406;59.312;18.058;2022-10-19T13:36:13;9.00;92.60
12684;DHT22;6406;59.312;18.058;2022-10-19T13:38:44;9.10;89.60
12684;DHT22;6406;59.312;18.058;2022-10-19T13:41:17;8.70;98.80
12684;DHT22;6406;59.312;18.058;2022-10-19T13:44:01;7.80;71.90
12684;DHT22;6406;59.312;18.058;2022-10-19T13:49:47;9.80;1.00
12684;DHT22;6406;59.312;18.058;2022-10-19T13:52:32;9.00;1.00
12684;DHT22;6406;59.312;18.058;2022-10-19T13:58:35;9.40;1.00
12684;DHT22;6406;59.312;18.058;2022-10-19T14:01:15;8.20;1.00
12684;DHT22;6406;59.312;18.058;2022-10-19T14:04:16;9.10;1.00
12684;DHT22;6406;59.312;18.058;2022-10-19T14:06:49;9.30;1.00
12684;DHT22;6406;59.312;18.058;2022-10-19T14:09:37;7.50;1.00
12684;DHT22;6406;59.312;18.058;2022-10-19T14:12:20;7.40;1.00
12684;DHT22;6406;59.312;18.058;2022-10-19T14:14:51;6.70;1.00
12684;DHT22;6406;59.312;18.058;2022-10-19T14:17:22;8.90;1.00
12684;DHT22;6406;59.312;18.058;2022-10-19T14:19:52;8.70;1.00
12684;DHT22;6406;59.312;18.058;2022-10-19T14:22:24;8.60;1.00
12684;DHT22;6406;59.312;18.058;2022-10-19T14:24:59;8.70;1.00
12684;DHT22;6406;59.312;18.058;2022-10-19T14:27:29;8.70;1.00
12684;DHT22;6406;59.312;18.058;2022-10-19T14:29:56;8.70;1.00
12684;DHT22;6406;59.312;18.058;2022-10-19T14:32:25;8.60;1.00
12684;DHT22;6406;59.312;18.058;2022-10-19T14:34:58;8.70;1.00
12684;DHT22;6406;59.312;18.058;2022-10-19T14:38:04;8.60;1.00
12684;DHT22;6406;59.312;18.058;2022-10-19T14:40:36;8.60;1.00
12684;DHT22;6406;59.312;18.058;2022-10-19T14:43:18;8.60;1.00
12684;DHT22;6406;59.312;18.058;2022-10-19T14:46:10;8.50;1.00
12684;DHT22;6406;59.312;18.058;2022-10-19T14:48:42;9.80;4.50
12684;DHT22;6406;59.312;18.058;2022-10-19T14:51:19;8.40;11.10
12684;DHT22;6406;59.312;18.058;2022-10-19T14:53:53;8.40;18.00
12684;DHT22;6406;59.312;18.058;2022-10-19T14:56:25;8.40;1.00
12684;DHT22;6406;59.312;18.058;2022-10-19T14:58:58;8.20;10.60
12684;DHT22;6406;59.312;18.058;2022-10-19T15:01:29;8.20;33.20
12684;DHT22;6406;59.312;18.058;2022-10-19T15:03:56;8.20;70.20
12684;DHT22;6406;59.312;18.058;2022-10-19T15:06:29;8.20;64.50
12684;DHT22;6406;59.312;18.058;2022-10-19T15:09:07;8.10;55.00
12684;DHT22;6406;59.312;18.058;2022-10-19T15:11:45;8.10;46.70
12684;DHT22;6406;59.312;18.058;2022-10-19T15:14:16;8.10;86.70
12684;DHT22;6406;59.312;18.058;2022-10-19T15:16:51;8.10;90.90
12684;DHT22;6406;59.312;18.058;2022-10-19T15:19:24;8.00;93.60
12684;DHT22;6406;59.312;18.058;2022-10-19T15:22:17;8.00;95.60
12684;DHT22;6406;59.312;18.058;2022-10-19T15:24:59;8.00;97.30
12684;DHT22;6406;59.312;18.058;2022-10-19T15:27:32;7.90;99.90
12684;DHT22;6406;59.312;18.058;2022-10-19T15:30:02;7.30;99.90
12684;DHT22;6406;59.312;18.058;2022-10-19T15:32:33;7.80;99.90
12684;DHT22;6406;59.312;18.058;2022-10-19T15:35:10;7.80;99.90
12684;DHT22;6406;59.312;18.058;2022-10-19T15:37:47;7.70;99.90
12684;DHT22;6406;59.312;18.058;2022-10-19T15:40:25;7.80;99.90
12684;DHT22;6406;59.312;18.058;2022-10-19T15:42:54;7.70;99.90
12684;DHT22;6406;59.312;18.058;2022-10-19T15:45:30;7.60;99.90
12684;DHT22;6406;59.312;18.058;2022-10-19T15:48:26;7.60;99.90
12684;DHT22;6406;59.312;18.058;2022-10-19T15:50:56;5.20;99.90
12684;DHT22;6406;59.312;18.058;2022-10-19T15:53:24;7.50;99.90
12684;DHT22;6406;59.312;18.058;2022-10-19T15:55:54;7.50;99.90
12684;DHT22;6406;59.312;18.058;2022-10-19T15:58:21;7.50;99.90
12684;DHT22;6406;59.312;18.058;2022-10-19T16:00:52;7.50;99.90
12684;DHT22;6406;59.312;18.058;2022-10-19T16:03:20;7.40;99.90
12684;DHT22;6406;59.312;18.058;2022-10-19T16:05:48;7.30;99.90
12684;DHT22;6406;59.312;18.058;2022-10-19T16:08:16;7.30;99.90
12684;DHT22;6406;59.312;18.058;2022-10-19T16:10:43;7.30;99.90
12684;DHT22;6406;59.312;18.058;2022-10-19T16:13:13;7.20;99.90
12684;DHT22;6406;59.312;18.058;2022-10-19T16:15:40;7.20;99.90
12684;DHT22;6406;59.312;18.058;2022-10-19T16:18:09;7.20;99.90
12684;DHT22;6406;59.312;18.058;2022-10-19T16:20:50;7.20;99.90
12684;DHT22;6406;59.312;18.058;2022-10-19T16:23:17;7.10;99.90
12684;DHT22;6406;59.312;18.058;2022-10-19T16:25:44;7.10;99.90
12684;DHT22;6406;59.312;18.058;2022-10-19T16:28:13;7.10;99.90
12684;DHT22;6406;59.312;18.058;2022-10-19T16:30:40;7.10;99.90
12684;DHT22;6406;59.312;18.058;2022-10-19T16:33:07;7.10;99.90
12684;DHT22;6406;59.312;18.058;2022-10-19T16:35:37;7.00;99.90
12684;DHT22;6406;59.312;18.058;2022-10-19T16:38:04;7.00;99.90
12684;DHT22;6406;59.312;18.058;2022-10-19T16:40:31;7.00;99.90
12684;DHT22;6406;59.312;18.058;2022-10-19T16:42:58;7.00;99.90